createdAt,value
2023-03-06T00:02:03.817Z,100240.53
2023-03-06T00:04:45.530Z,100254.16
2023-03-06T00:07:41.300Z,100247.66
2023-03-06T00:10:14.689Z,100246.84
2023-03-06T00:12:41.464Z,100238.81
2023-03-06T00:18:02.187Z,100245.47
2023-03-06T00:20:28.803Z,100233.66
2023-03-06T00:22:58.417Z,100236.91
2023-03-06T00:25:25.626Z,100230.66
2023-03-06T00:28:01.490Z,100239.78
2023-03-06T00:30:37.442Z,100232.31
2023-03-06T00:33:07.754Z,100232.22
2023-03-06T00:35:52.630Z,100232.53
2023-03-06T00:38:25.812Z,100234.00
2023-03-06T00:41:09.420Z,100233.59
2023-03-06T00:43:36.167Z,100224.84
2023-03-06T00:46:05.654Z,100231.78
2023-03-06T00:48:33.289Z,100228.28
2023-03-06T00:51:03.134Z,100224.91
2023-03-06T00:53:29.702Z,100219.78
2023-03-06T00:55:56.282Z,100217.56
2023-03-06T00:58:22.904Z,100212.50
2023-03-06T01:00:49.519Z,100206.59
2023-03-06T01:03:16.427Z,100208.44
2023-03-06T01:06:02.829Z,100218.34
2023-03-06T01:08:34.507Z,100202.44
2023-03-06T01:11:04.940Z,100198.66
2023-03-06T01:13:40.827Z,100200.47
2023-03-06T01:16:10.056Z,100193.94
2023-03-06T01:18:45.453Z,100192.06
2023-03-06T01:21:18.903Z,100196.78
2023-03-06T01:23:45.587Z,100195.03
2023-03-06T01:26:12.239Z,100193.69
2023-03-06T01:28:38.896Z,100181.75
2023-03-06T01:31:09.498Z,100180.97
2023-03-06T01:33:41.453Z,100181.50
2023-03-06T01:36:11.418Z,100176.59
2023-03-06T01:38:40.844Z,100166.66
2023-03-06T01:41:13.392Z,100161.13
2023-03-06T01:43:42.040Z,100162.50
2023-03-06T01:46:29.497Z,100169.06
2023-03-06T01:49:04.310Z,100164.78
2023-03-06T01:51:35.998Z,100164.72
2023-03-06T01:54:07.605Z,100163.22
2023-03-06T01:56:34.887Z,100161.00
2023-03-06T01:59:07.514Z,100155.16
2023-03-06T02:01:44.924Z,100154.22
2023-03-06T02:04:11.901Z,100152.94
2023-03-06T02:06:41.294Z,100149.91
2023-03-06T02:09:07.881Z,100146.72
2023-03-06T02:11:34.563Z,100144.72
2023-03-06T02:14:10.890Z,100149.28
2023-03-06T02:16:45.024Z,100144.47
2023-03-06T02:19:28.223Z,100152.72
2023-03-06T02:21:57.914Z,100145.16
2023-03-06T02:24:35.529Z,100148.72
2023-03-06T02:27:04.265Z,100148.38
2023-03-06T02:29:34.070Z,100152.94
2023-03-06T02:32:04.689Z,100148.72
2023-03-06T02:34:46.626Z,100148.16
2023-03-06T02:37:16.531Z,100155.41
2023-03-06T02:39:51.798Z,100141.53
2023-03-06T02:42:25.279Z,100140.09
2023-03-06T02:44:57.576Z,100140.81
2023-03-06T02:47:26.218Z,100137.94
2023-03-06T02:50:01.973Z,100133.78
2023-03-06T02:52:31.743Z,100141.66
2023-03-06T02:55:04.543Z,100134.25
2023-03-06T02:57:38.264Z,100135.06
2023-03-06T03:00:14.922Z,100137.94
2023-03-06T03:02:41.920Z,100134.16
2023-03-06T03:05:08.993Z,100139.19
2023-03-06T03:07:36.084Z,100132.88
2023-03-06T03:10:05.921Z,100139.84
2023-03-06T03:12:35.358Z,100138.97
2023-03-06T03:15:02.046Z,100138.59
2023-03-06T03:17:36.189Z,100132.13
2023-03-06T03:20:04.959Z,100136.88
2023-03-06T03:22:47.200Z,100128.44
2023-03-06T03:25:18.050Z,100127.00
2023-03-06T03:27:47.486Z,100131.97
2023-03-06T03:30:27.345Z,100122.28
2023-03-06T03:32:54.011Z,100125.47
2023-03-06T03:35:23.909Z,100123.66
2023-03-06T03:37:50.598Z,100120.63
2023-03-06T03:40:17.329Z,100125.38
2023-03-06T03:42:51.320Z,100122.72
2023-03-06T03:45:28.004Z,100128.69
2023-03-06T03:48:06.650Z,100135.66
2023-03-06T03:50:39.943Z,100119.28
2023-03-06T03:53:07.473Z,100119.00
2023-03-06T03:55:34.141Z,100118.81
2023-03-06T03:58:00.717Z,100114.63
2023-03-06T04:00:41.613Z,100121.41
2023-03-06T04:03:11.323Z,100115.91
2023-03-06T04:05:47.284Z,100123.22
2023-03-06T04:08:14.223Z,100118.25
2023-03-06T04:10:47.277Z,100118.63
2023-03-06T04:13:25.758Z,100115.00
2023-03-06T04:15:54.382Z,100113.25
2023-03-06T04:18:25.335Z,100105.63
2023-03-06T04:21:11.525Z,100105.03
2023-03-06T04:23:44.366Z,100109.59
2023-03-06T04:26:10.964Z,100110.16
2023-03-06T04:28:40.560Z,100097.75
2023-03-06T04:31:07.182Z,100103.41
2023-03-06T04:33:33.836Z,100099.22
2023-03-06T04:36:03.690Z,100101.03
2023-03-06T04:38:30.343Z,100091.94
2023-03-06T04:40:56.974Z,100096.47
2023-03-06T04:43:26.593Z,100091.22
2023-03-06T04:45:53.236Z,100092.59
2023-03-06T04:48:22.247Z,100089.69
2023-03-06T04:50:51.710Z,100091.72
2023-03-06T04:53:18.304Z,100090.63
2023-03-06T04:55:48.107Z,100085.13
2023-03-06T04:58:17.384Z,100088.72
2023-03-06T05:00:44.159Z,100092.72
2023-03-06T05:03:17.639Z,100089.06
2023-03-06T05:05:44.308Z,100083.88
2023-03-06T05:08:18.813Z,100077.56
2023-03-06T05:10:46.542Z,100084.69
2023-03-06T05:13:13.228Z,100079.94
2023-03-06T05:15:40.820Z,100088.78
2023-03-06T05:18:07.418Z,100088.34
2023-03-06T05:20:33.993Z,100086.72
2023-03-06T05:23:11.602Z,100082.78
2023-03-06T05:25:47.715Z,100082.50
2023-03-06T05:28:14.330Z,100097.09
2023-03-06T05:30:46.933Z,100094.09
2023-03-06T05:33:13.526Z,100090.91
2023-03-06T05:35:45.789Z,100094.63
2023-03-06T05:38:16.995Z,100091.50
2023-03-06T05:40:57.344Z,100084.84
2023-03-06T05:43:23.898Z,100088.41
2023-03-06T05:46:00.939Z,100091.38
2023-03-06T05:48:30.489Z,100087.88
2023-03-06T05:51:11.102Z,100087.94
2023-03-06T05:53:47.526Z,100079.59
2023-03-06T05:56:28.984Z,100087.47
2023-03-06T05:58:56.234Z,100084.84
2023-03-06T06:01:22.968Z,100080.47
2023-03-06T06:03:51.323Z,100096.66
2023-03-06T06:06:22.850Z,100097.09
2023-03-06T06:08:56.641Z,100093.50
2023-03-06T06:11:26.055Z,100101.38
2023-03-06T06:13:55.488Z,100098.84
2023-03-06T06:16:22.090Z,100098.91
2023-03-06T06:18:48.694Z,100096.34
2023-03-06T06:21:16.268Z,100097.31
2023-03-06T06:23:49.276Z,100090.09
2023-03-06T06:26:16.835Z,100095.00
2023-03-06T06:28:53.160Z,100096.09
2023-03-06T06:31:22.226Z,100080.16
2023-03-06T06:34:06.514Z,100088.13
2023-03-06T06:36:40.465Z,100091.72
2023-03-06T06:39:11.083Z,100101.25
2023-03-06T06:41:55.452Z,100098.88
2023-03-06T06:44:23.874Z,100104.50
2023-03-06T06:49:37.213Z,100107.31
2023-03-06T06:52:07.330Z,100110.69
2023-03-06T06:54:34.700Z,100113.22
2023-03-06T06:57:01.416Z,100118.75
2023-03-06T06:59:28.123Z,100111.69
2023-03-06T07:01:57.848Z,100117.41
2023-03-06T07:04:24.390Z,100109.78
2023-03-06T07:06:51.075Z,100110.88
2023-03-06T07:09:17.702Z,100108.78
2023-03-06T07:11:44.356Z,100103.16
2023-03-06T07:14:11.612Z,100105.41
2023-03-06T07:16:38.189Z,100111.44
2023-03-06T07:19:04.798Z,100107.75
2023-03-06T07:21:31.663Z,100104.88
2023-03-06T07:23:59.737Z,100107.22
2023-03-06T07:26:34.397Z,100104.06
2023-03-06T07:29:05.549Z,100102.69
2023-03-06T07:31:32.357Z,100101.53
2023-03-06T07:34:04.705Z,100104.16
2023-03-06T07:36:32.153Z,100103.16
2023-03-06T07:39:05.644Z,100102.78
2023-03-06T07:41:38.275Z,100098.41
2023-03-06T07:44:05.053Z,100106.63
2023-03-06T07:46:33.909Z,100104.81
2023-03-06T07:49:00.527Z,100100.28
2023-03-06T07:51:32.769Z,100104.44
2023-03-06T07:53:59.565Z,100112.31
2023-03-06T07:56:26.246Z,100106.84
2023-03-06T07:58:52.966Z,100106.84
2023-03-06T08:01:21.443Z,100100.38
2023-03-06T08:03:48.224Z,100103.38
2023-03-06T08:06:17.565Z,100107.84
2023-03-06T08:08:45.756Z,100100.78
2023-03-06T08:11:14.094Z,100102.44
2023-03-06T08:13:42.255Z,100098.81
2023-03-06T08:16:10.412Z,100101.63
2023-03-06T08:18:37.537Z,100095.78
2023-03-06T08:21:10.117Z,100108.00
2023-03-06T08:23:36.784Z,100107.88
2023-03-06T08:26:08.404Z,100102.34
2023-03-06T08:28:35.349Z,100106.09
2023-03-06T08:31:29.002Z,100099.41
2023-03-06T08:33:57.893Z,100103.06
2023-03-06T08:36:24.521Z,100101.44
2023-03-06T08:39:04.789Z,100096.34
2023-03-06T08:41:42.556Z,100092.31
2023-03-06T08:44:13.186Z,100096.97
2023-03-06T08:46:40.397Z,100104.50
2023-03-06T08:49:07.126Z,100099.59
2023-03-06T08:51:33.800Z,100103.25
2023-03-06T08:54:00.416Z,100103.25
2023-03-06T08:56:32.678Z,100099.41
2023-03-06T08:59:11.156Z,100100.63
2023-03-06T09:01:44.623Z,100100.84
2023-03-06T09:04:14.265Z,100099.22
2023-03-06T09:06:45.306Z,100099.41
2023-03-06T09:09:19.924Z,100096.38
2023-03-06T09:11:47.185Z,100100.84
2023-03-06T09:14:14.427Z,100098.84
2023-03-06T09:16:41.148Z,100100.03
2023-03-06T09:19:07.729Z,100097.59
2023-03-06T09:21:44.948Z,100104.13
2023-03-06T09:24:12.050Z,100098.00
2023-03-06T09:26:46.461Z,100106.56
2023-03-06T09:29:14.397Z,100101.66
2023-03-06T09:31:47.498Z,100101.06
2023-03-06T09:34:17.423Z,100096.78
2023-03-06T09:39:29.679Z,100087.22
2023-03-06T09:41:57.102Z,100082.53
2023-03-06T09:44:27.866Z,100090.06
2023-03-06T09:47:08.262Z,100086.59
2023-03-06T09:49:58.613Z,100089.03
2023-03-06T09:52:51.044Z,100079.88
2023-03-06T09:55:21.749Z,100085.38
2023-03-06T09:58:19.946Z,100088.22
2023-03-06T10:01:05.091Z,100085.16
2023-03-06T10:04:05.025Z,100096.34
2023-03-06T10:06:37.766Z,100094.72
2023-03-06T10:09:21.384Z,100095.13
2023-03-06T10:11:57.281Z,100091.22
2023-03-06T10:14:38.224Z,100086.94
2023-03-06T10:17:17.849Z,100089.69
2023-03-06T10:19:47.870Z,100083.34
2023-03-06T10:22:34.382Z,100081.34
2023-03-06T10:25:19.648Z,100092.84
2023-03-06T10:28:20.048Z,100082.41
2023-03-06T10:31:08.869Z,100085.75
2023-03-06T10:33:41.822Z,100073.59
2023-03-06T10:36:14.617Z,100082.00
2023-03-06T10:38:46.865Z,100075.13
2023-03-06T10:41:33.423Z,100069.16
2023-03-06T10:44:02.974Z,100068.19
2023-03-06T10:46:37.078Z,100064.47
2023-03-06T10:49:23.397Z,100065.66
2023-03-06T10:52:19.426Z,100062.69
2023-03-06T10:55:15.316Z,100061.09
2023-03-06T10:57:44.976Z,100057.00
2023-03-06T11:00:34.351Z,100054.03
2023-03-06T11:03:24.244Z,100052.81
2023-03-06T11:06:42.342Z,100058.56
2023-03-06T11:09:26.547Z,100054.47
2023-03-06T11:12:13.183Z,100057.28
2023-03-06T11:14:39.800Z,100055.66
2023-03-06T11:17:35.538Z,100056.78
2023-03-06T11:20:20.160Z,100055.81
2023-03-06T11:22:52.377Z,100055.81
2023-03-06T11:25:26.451Z,100047.88
2023-03-06T11:28:01.745Z,100053.19
2023-03-06T11:31:02.205Z,100052.59
2023-03-06T11:33:51.539Z,100042.19
2023-03-06T11:36:23.736Z,100045.09
2023-03-06T11:38:52.180Z,100045.09
2023-03-06T11:41:48.771Z,100042.47
2023-03-06T11:44:45.630Z,100037.16
2023-03-06T11:47:46.504Z,100038.97
2023-03-06T11:50:32.858Z,100035.97
2023-03-06T11:53:08.300Z,100035.19
2023-03-06T11:56:19.674Z,100029.84
2023-03-06T11:59:19.423Z,100035.56
2023-03-06T12:02:21.144Z,100020.94
2023-03-06T12:05:29.918Z,100020.53
2023-03-06T12:08:25.596Z,100027.63
2023-03-06T12:11:11.380Z,100011.06
2023-03-06T12:14:04.134Z,100009.28
2023-03-06T12:16:58.390Z,100006.44
2023-03-06T12:19:30.287Z,99989.09
2023-03-06T12:22:34.592Z,99990.66
2023-03-06T12:25:32.018Z,99986.47
2023-03-06T12:28:13.108Z,99977.91
2023-03-06T12:31:03.721Z,99983.13
2023-03-06T12:34:10.778Z,99969.22
2023-03-06T12:36:59.003Z,99973.72
2023-03-06T12:39:42.664Z,99971.06
2023-03-06T12:42:34.594Z,99961.28
2023-03-06T12:45:04.231Z,99963.06
2023-03-06T12:47:40.492Z,99958.81
2023-03-06T12:50:35.910Z,99953.09
2023-03-06T12:53:20.764Z,99951.03
2023-03-06T12:56:04.044Z,99954.56
2023-03-06T12:58:46.316Z,99954.91
2023-03-06T13:01:53.036Z,99947.91
2023-03-06T13:04:52.698Z,99956.78
2023-03-06T13:07:29.382Z,99958.88
2023-03-06T13:10:12.753Z,99955.06
2023-03-06T13:12:52.231Z,99949.72
2023-03-06T13:15:44.065Z,99951.56
2023-03-06T13:18:22.643Z,99934.84
2023-03-06T13:23:33.090Z,99924.00
2023-03-06T13:26:22.374Z,99924.19
2023-03-06T13:28:58.730Z,99922.84
2023-03-06T13:31:34.566Z,99915.66
2023-03-06T13:34:03.784Z,99912.38
2023-03-06T13:36:39.473Z,99912.13
2023-03-06T13:39:19.810Z,99911.56
2023-03-06T13:42:00.295Z,99910.56
2023-03-06T13:44:30.065Z,99901.38
2023-03-06T13:47:20.457Z,99893.63
2023-03-06T13:49:52.757Z,99899.09
2023-03-06T13:52:37.346Z,99892.81
2023-03-06T13:55:12.612Z,99886.56
2023-03-06T13:57:59.971Z,99895.25
2023-03-06T14:00:54.846Z,99888.16
2023-03-06T14:03:52.541Z,99888.88
2023-03-06T14:09:29.543Z,99880.72
2023-03-06T14:12:36.163Z,99875.19
2023-03-06T14:15:23.946Z,99862.41
2023-03-06T14:18:07.255Z,99874.34
2023-03-06T14:20:39.938Z,99871.03
2023-03-06T14:23:21.554Z,99860.81
2023-03-06T14:25:59.543Z,99869.47
2023-03-06T14:28:40.827Z,99866.53
2023-03-06T14:31:20.887Z,99864.91
2023-03-06T14:33:55.739Z,99866.97
2023-03-06T14:36:25.975Z,99862.06
2023-03-06T14:39:31.944Z,99859.47
2023-03-06T14:42:24.538Z,99853.03
2023-03-06T14:45:17.894Z,99852.50
2023-03-06T14:48:04.313Z,99861.25
2023-03-06T14:50:40.981Z,99861.03
2023-03-06T14:53:30.430Z,99848.41
2023-03-06T14:56:00.109Z,99843.94
2023-03-06T14:58:40.747Z,99841.97
2023-03-06T15:01:10.559Z,99843.94
2023-03-06T15:03:51.473Z,99847.19
2023-03-06T15:06:32.548Z,99851.00
2023-03-06T15:09:05.846Z,99838.38
2023-03-06T15:11:55.100Z,99836.53
2023-03-06T15:14:30.715Z,99836.53
2023-03-06T15:17:18.788Z,99827.50
2023-03-06T15:19:50.475Z,99832.38
2023-03-06T15:22:46.054Z,99825.25
2023-03-06T15:25:35.074Z,99820.44
2023-03-06T15:28:22.869Z,99823.63
2023-03-06T15:31:13.870Z,99818.19
2023-03-06T15:33:40.491Z,99810.31
2023-03-06T15:36:20.934Z,99813.00
2023-03-06T15:38:55.779Z,99811.41
2023-03-06T15:41:36.725Z,99808.28
2023-03-06T15:44:11.026Z,99813.94
2023-03-06T15:46:37.699Z,99818.69
2023-03-06T15:49:04.388Z,99816.09
2023-03-06T15:51:32.633Z,99819.63
2023-03-06T15:54:11.899Z,99812.16
2023-03-06T15:56:48.199Z,99814.75
2023-03-06T15:59:42.975Z,99820.50
2023-03-06T16:02:18.779Z,99821.94
2023-03-06T16:04:48.914Z,99815.97
2023-03-06T16:07:19.325Z,99811.13
2023-03-06T16:09:45.994Z,99818.06
2023-03-06T16:12:25.063Z,99816.16
2023-03-06T16:14:58.166Z,99815.41
2023-03-06T16:17:24.846Z,99815.16
2023-03-06T16:19:51.824Z,99819.00
2023-03-06T16:22:22.632Z,99819.63
2023-03-06T16:24:49.284Z,99819.13
2023-03-06T16:27:29.453Z,99814.81
2023-03-06T16:29:56.644Z,99819.81
2023-03-06T16:32:23.441Z,99817.59
2023-03-06T16:34:50.112Z,99809.66
2023-03-06T16:37:16.993Z,99808.06
2023-03-06T16:39:43.804Z,99817.53
2023-03-06T16:42:13.618Z,99820.16
2023-03-06T16:44:40.527Z,99814.09
2023-03-06T16:47:14.619Z,99809.88
2023-03-06T16:49:41.326Z,99820.31
2023-03-06T16:52:16.311Z,99819.13
2023-03-06T16:54:44.811Z,99821.06
2023-03-06T16:57:27.395Z,99832.41
2023-03-06T16:59:56.851Z,99829.97
2023-03-06T17:02:26.494Z,99822.59
2023-03-06T17:04:55.751Z,99828.06
2023-03-06T17:07:23.793Z,99827.47
2023-03-06T17:09:50.391Z,99834.59
2023-03-06T17:12:17.061Z,99828.28
2023-03-06T17:14:43.693Z,99838.84
2023-03-06T17:17:10.298Z,99839.28
2023-03-06T17:19:36.910Z,99838.91
2023-03-06T17:22:03.674Z,99834.41
2023-03-06T17:24:31.618Z,99837.09
2023-03-06T17:26:58.237Z,99830.66
2023-03-06T17:29:24.866Z,99838.13
2023-03-06T17:31:51.520Z,99833.28
2023-03-06T17:34:18.346Z,99841.41
2023-03-06T17:36:44.960Z,99844.03
2023-03-06T17:39:11.590Z,99848.38
2023-03-06T17:41:38.286Z,99851.44
2023-03-06T17:44:05.427Z,99859.38
2023-03-06T17:46:32.181Z,99855.50
2023-03-06T17:48:58.888Z,99868.31
2023-03-06T17:51:25.558Z,99865.88
2023-03-06T17:53:52.145Z,99863.44
2023-03-06T17:56:18.805Z,99866.72
2023-03-06T17:58:45.650Z,99871.16
2023-03-06T18:01:23.974Z,99870.31
2023-03-06T18:03:51.706Z,99877.28
2023-03-06T18:06:19.505Z,99868.31
2023-03-06T18:08:47.326Z,99872.03
2023-03-06T18:11:14.659Z,99878.56
2023-03-06T18:13:43.608Z,99873.28
2023-03-06T18:16:15.897Z,99877.53
2023-03-06T18:18:42.563Z,99877.97
2023-03-06T18:21:15.504Z,99875.91
2023-03-06T18:23:56.286Z,99879.94
2023-03-06T18:26:25.780Z,99879.34
2023-03-06T18:28:58.212Z,99879.56
2023-03-06T18:31:34.700Z,99880.38
2023-03-06T18:34:14.741Z,99873.69
2023-03-06T18:36:42.284Z,99880.56
2023-03-06T18:39:12.516Z,99867.34
2023-03-06T18:41:57.786Z,99869.38
2023-03-06T18:44:24.557Z,99868.41
2023-03-06T18:46:57.929Z,99870.03
2023-03-06T18:49:46.270Z,99873.09
2023-03-06T18:52:15.526Z,99877.75
2023-03-06T18:54:42.289Z,99868.19
2023-03-06T18:57:30.418Z,99877.34
2023-03-06T19:00:00.558Z,99880.56
2023-03-06T19:02:27.481Z,99876.09
2023-03-06T19:04:57.059Z,99882.59
2023-03-06T19:07:24.475Z,99886.22
2023-03-06T19:09:51.077Z,99876.28
2023-03-06T19:12:18.787Z,99877.94
2023-03-06T19:14:45.423Z,99881.56
2023-03-06T19:17:12.015Z,99882.38
2023-03-06T19:19:38.703Z,99874.47
2023-03-06T19:22:05.324Z,99873.88
2023-03-06T19:24:32.133Z,99871.44
2023-03-06T19:26:58.740Z,99885.88
2023-03-06T19:29:27.599Z,99878.31
2023-03-06T19:31:57.545Z,99871.66
2023-03-06T19:34:26.726Z,99878.56
2023-03-06T19:36:56.269Z,99875.50
2023-03-06T19:39:25.696Z,99874.25
2023-03-06T19:41:52.473Z,99869.38
2023-03-06T19:44:21.830Z,99872.88
2023-03-06T19:49:31.813Z,99870.81
2023-03-06T19:51:58.401Z,99869.41
2023-03-06T19:54:32.590Z,99868.78
2023-03-06T19:56:59.458Z,99873.88
2023-03-06T19:59:27.907Z,99876.09
2023-03-06T20:01:54.610Z,99874.25
2023-03-06T20:04:21.206Z,99871.44
2023-03-06T20:06:54.776Z,99880.56
2023-03-06T20:09:21.450Z,99872.22
2023-03-06T20:11:54.575Z,99874.28
2023-03-06T20:14:25.372Z,99875.09
2023-03-06T20:16:57.655Z,99875.25
2023-03-06T20:19:26.944Z,99877.94
2023-03-06T20:22:06.419Z,99872.03
2023-03-06T20:24:32.989Z,99879.34
2023-03-06T20:27:05.677Z,99873.47
2023-03-06T20:29:32.313Z,99871.22
2023-03-06T20:32:02.012Z,99872.84
2023-03-06T20:34:28.624Z,99873.22
2023-03-06T20:36:55.276Z,99876.06
2023-03-06T20:39:26.902Z,99877.09
2023-03-06T20:41:59.451Z,99869.00
2023-03-06T20:44:29.450Z,99874.69
2023-03-06T20:46:58.767Z,99884.25
2023-03-06T20:49:34.331Z,99876.28
2023-03-06T20:52:00.910Z,99877.75
2023-03-06T20:54:27.509Z,99875.69
2023-03-06T20:56:54.064Z,99876.72
2023-03-06T20:59:20.896Z,99879.56
2023-03-06T21:01:50.549Z,99877.94
2023-03-06T21:04:19.601Z,99876.06
2023-03-06T21:06:49.149Z,99871.03
2023-03-06T21:09:24.731Z,99867.97
2023-03-06T21:11:51.314Z,99870.19
2023-03-06T21:14:17.931Z,99877.31
2023-03-06T21:16:47.751Z,99875.28
2023-03-06T21:19:32.473Z,99874.44
2023-03-06T21:22:01.127Z,99870.78
2023-03-06T21:24:28.027Z,99870.16
2023-03-06T21:26:54.880Z,99876.47
2023-03-06T21:29:29.697Z,99879.75
2023-03-06T21:32:02.368Z,99879.94
2023-03-06T21:34:35.091Z,99885.59
2023-03-06T21:37:10.493Z,99890.50
2023-03-06T21:39:39.802Z,99887.25
2023-03-06T21:42:06.541Z,99892.91
2023-03-06T21:44:41.060Z,99899.19
2023-03-06T21:47:10.802Z,99897.16
2023-03-06T21:49:45.908Z,99894.69
2023-03-06T21:52:22.499Z,99894.31
2023-03-06T21:54:51.946Z,99890.44
2023-03-06T21:57:18.469Z,99895.72
2023-03-06T21:59:47.964Z,99899.59
2023-03-06T22:02:17.450Z,99897.06
2023-03-06T22:05:02.334Z,99893.59
2023-03-06T22:07:29.920Z,99902.75
2023-03-06T22:09:56.717Z,99902.75
2023-03-06T22:12:34.160Z,99899.28
2023-03-06T22:15:00.759Z,99899.84
2023-03-06T22:17:28.435Z,99903.13
2023-03-06T22:19:55.759Z,99897.63
2023-03-06T22:22:22.420Z,99900.28
2023-03-06T22:24:51.398Z,99902.66
2023-03-06T22:27:17.998Z,99903.81
2023-03-06T22:29:45.688Z,99907.91
2023-03-06T22:32:16.009Z,99901.25
2023-03-06T22:34:42.662Z,99909.75
2023-03-06T22:37:20.606Z,99907.09
2023-03-06T22:39:56.487Z,99904.59
2023-03-06T22:42:30.584Z,99908.00
2023-03-06T22:44:57.227Z,99896.53
2023-03-06T22:47:37.168Z,99891.66
2023-03-06T22:50:07.193Z,99893.41
2023-03-06T22:52:41.970Z,99907.34
2023-03-06T22:55:09.492Z,99896.81
2023-03-06T22:57:43.067Z,99903.53
2023-03-06T23:00:14.392Z,99908.63
2023-03-06T23:02:56.626Z,99903.28
2023-03-06T23:05:29.344Z,99901.25
2023-03-06T23:07:56.069Z,99913.78
2023-03-06T23:10:22.703Z,99903.44
2023-03-06T23:12:52.066Z,99913.75
2023-03-06T23:15:21.310Z,99906.06
2023-03-06T23:17:53.893Z,99902.81
2023-03-06T23:23:13.798Z,99916.59
2023-03-06T23:25:42.940Z,99910.03
2023-03-06T23:28:09.517Z,99920.69
2023-03-06T23:30:39.049Z,99916.06
2023-03-06T23:33:07.866Z,99908.59
2023-03-06T23:35:45.498Z,99913.97
2023-03-06T23:38:18.094Z,99928.00
2023-03-06T23:40:44.692Z,99915.69
2023-03-06T23:43:13.005Z,99927.00
2023-03-06T23:45:39.768Z,99920.72
2023-03-06T23:48:09.386Z,99930.13
2023-03-06T23:50:47.907Z,99927.13
2023-03-06T23:53:14.636Z,99930.88
2023-03-06T23:55:48.765Z,99936.56
2023-03-06T23:58:25.811Z,99932.81
